Time;durP1;ratioP1;P1;durP2;ratioP2;P2;SDS_P1;SDS_P2;PMS_P1;PMS_P2;Temp;Humidity;BMP_temperature;BMP_pressure;BME280_temperature;BME280_humidity;BME280_pressure;Samples;Min_cycle;Max_cycle;Signal;HPM_P1;HPM_P2
2023/06/27 00:02:03;;;;;;;1.30;1.13;;;;;;;;;;5089293;28;20561;-33
2023/06/27 00:04:30;;;;;;;2.33;1.10;;;;;;;;;;5080247;28;20213;-31
2023/06/27 00:06:57;;;;;;;2.28;1.40;;;;;;;;;;5090894;28;20205;-33
2023/06/27 00:09:24;;;;;;;5.47;1.63;;;;;;;;;;5084633;28;20233;-31
2023/06/27 00:11:52;;;;;;;1.90;1.02;;;;;;;;;;5090937;28;20201;-32
2023/06/27 00:14:19;;;;;;;2.33;1.15;;;;;;;;;;5087927;28;20215;-32
2023/06/27 00:16:49;;;;;;;3.40;1.70;;;;;;;;;;5085790;28;20209;-31
2023/06/27 00:19:16;;;;;;;3.10;1.48;;;;;;;;;;5086418;28;20614;-30
2023/06/27 00:21:43;;;;;;;1.67;1.20;;;;;;;;;;5084253;28;20228;-33
2023/06/27 00:24:11;;;;;;;2.10;1.20;;;;;;;;;;5080049;28;20195;-33
2023/06/27 00:26:38;;;;;;;2.22;1.35;;;;;;;;;;5087458;28;20333;-34
2023/06/27 00:29:05;;;;;;;2.65;1.35;;;;;;;;;;5083212;28;20225;-34
2023/06/27 00:31:32;;;;;;;4.53;1.45;;;;;;;;;;5091947;28;20210;-31
2023/06/27 00:34:01;;;;;;;2.15;1.25;;;;;;;;;;5087265;28;20298;-30
2023/06/27 00:36:28;;;;;;;2.30;1.50;;;;;;;;;;5087156;28;20651;-33
2023/06/27 00:38:55;;;;;;;2.22;1.15;;;;;;;;;;5082305;28;20230;-33
2023/06/27 00:41:22;;;;;;;1.25;1.08;;;;;;;;;;5089982;28;20213;-31
2023/06/27 00:43:49;;;;;;;1.25;0.98;;;;;;;;;;5092791;28;20503;-31
2023/06/27 00:46:20;;;;;;;5.60;1.23;;;;;;;;;;5092505;28;20584;-31
2023/06/27 00:48:47;;;;;;;1.48;1.30;;;;;;;;;;5085980;28;20222;-31
2023/06/27 00:51:16;;;;;;;1.77;1.38;;;;;;;;;;5079418;28;20252;-32
2023/06/27 00:53:43;;;;;;;2.80;1.58;;;;;;;;;;5088646;28;20202;-29
2023/06/27 00:56:10;;;;;;;1.55;1.10;;;;;;;;;;5091559;28;20197;-33
2023/06/27 00:58:37;;;;;;;2.13;1.30;;;;;;;;;;5092090;28;20220;-31
2023/06/27 01:01:04;;;;;;;2.13;1.48;;;;;;;;;;5086806;28;20201;-30
2023/06/27 01:03:32;;;;;;;1.65;1.20;;;;;;;;;;5086557;28;20204;-32
2023/06/27 01:05:59;;;;;;;2.53;1.40;;;;;;;;;;5090479;28;20211;-34
2023/06/27 01:08:31;;;;;;;1.38;1.27;;;;;;;;;;5085101;28;20228;-29
2023/06/27 01:11:02;;;;;;;2.95;1.33;;;;;;;;;;5078474;28;20234;-28
2023/06/27 01:13:31;;;;;;;1.48;1.35;;;;;;;;;;5092314;28;20204;-28
2023/06/27 01:15:58;;;;;;;1.13;1.00;;;;;;;;;;5092828;28;20227;-32
2023/06/27 01:18:27;;;;;;;1.48;1.38;;;;;;;;;;5082807;28;20676;-31
2023/06/27 01:20:54;;;;;;;3.63;1.17;;;;;;;;;;5089697;28;20201;-29
2023/06/27 01:23:24;;;;;;;1.27;1.17;;;;;;;;;;5090377;28;20244;-34
2023/06/27 01:25:55;;;;;;;3.05;1.40;;;;;;;;;;5078442;28;20229;-31
2023/06/27 01:28:22;;;;;;;1.65;1.27;;;;;;;;;;5091477;28;20270;-31
2023/06/27 01:30:49;;;;;;;1.92;1.40;;;;;;;;;;5092169;28;20216;-34
2023/06/27 01:33:19;;;;;;;1.88;1.10;;;;;;;;;;5086653;28;20206;-35
2023/06/27 01:35:50;;;;;;;3.30;1.35;;;;;;;;;;5088398;28;20198;-34
2023/06/27 01:38:21;;;;;;;3.42;1.60;;;;;;;;;;5086811;28;20217;-34
2023/06/27 01:40:50;;;;;;;4.13;1.27;;;;;;;;;;5085212;28;20200;-34
2023/06/27 01:43:19;;;;;;;3.15;1.38;;;;;;;;;;5091631;28;20197;-32
2023/06/27 01:45:46;;;;;;;2.10;1.23;;;;;;;;;;5092035;28;20205;-34
2023/06/27 01:48:14;;;;;;;4.18;1.50;;;;;;;;;;5082560;28;20216;-31
2023/06/27 01:50:41;;;;;;;1.77;1.23;;;;;;;;;;5088390;28;20214;-33
2023/06/27 01:53:08;;;;;;;5.20;1.70;;;;;;;;;;5091628;28;20435;-33
2023/06/27 01:55:36;;;;;;;2.13;1.40;;;;;;;;;;5085716;28;20204;-33
2023/06/27 01:58:03;;;;;;;1.95;1.30;;;;;;;;;;5090472;28;20252;-30
2023/06/27 02:00:31;;;;;;;2.92;1.50;;;;;;;;;;5092242;28;20201;-33
2023/06/27 02:02:58;;;;;;;3.35;1.10;;;;;;;;;;5082520;28;20205;-32
2023/06/27 02:05:25;;;;;;;1.88;1.50;;;;;;;;;;5084088;28;20207;-36
2023/06/27 02:07:52;;;;;;;2.38;1.25;;;;;;;;;;5090912;28;20227;-30
2023/06/27 02:10:20;;;;;;;1.10;1.00;;;;;;;;;;5075143;28;20529;-34
2023/06/27 02:12:47;;;;;;;2.38;1.20;;;;;;;;;;5088455;28;20300;-33
2023/06/27 02:15:14;;;;;;;1.80;1.17;;;;;;;;;;5091818;28;20211;-34
2023/06/27 02:17:43;;;;;;;2.42;1.48;;;;;;;;;;5083829;28;20221;-32
2023/06/27 02:20:10;;;;;;;3.78;1.35;;;;;;;;;;5086880;28;20194;-32
2023/06/27 02:22:37;;;;;;;2.90;1.40;;;;;;;;;;5164621;22;20232;-30
2023/06/27 02:25:04;;;;;;;3.85;1.70;;;;;;;;;;5081459;28;20197;-31
2023/06/27 02:27:31;;;;;;;2.65;1.20;;;;;;;;;;5090113;28;20225;-28
2023/06/27 02:29:58;;;;;;;4.18;1.83;;;;;;;;;;5070804;28;20201;-33
2023/06/27 02:32:25;;;;;;;2.80;1.48;;;;;;;;;;5070646;28;20205;-32
2023/06/27 02:34:54;;;;;;;1.90;1.50;;;;;;;;;;5068619;28;20205;-31
2023/06/27 02:37:21;;;;;;;1.30;1.20;;;;;;;;;;5070151;28;20222;-35
2023/06/27 02:39:50;;;;;;;1.70;1.45;;;;;;;;;;5071141;28;20217;-34
2023/06/27 02:42:17;;;;;;;5.28;1.70;;;;;;;;;;5069920;28;20211;-33
2023/06/27 02:44:44;;;;;;;1.73;1.50;;;;;;;;;;5087484;28;20196;-34
2023/06/27 02:47:11;;;;;;;2.45;1.60;;;;;;;;;;5083623;28;20204;-35
2023/06/27 02:49:38;;;;;;;1.55;1.45;;;;;;;;;;5071154;28;20201;-31
2023/06/27 02:52:07;;;;;;;2.88;1.38;;;;;;;;;;5070501;28;20221;-33
2023/06/27 02:54:34;;;;;;;2.20;1.48;;;;;;;;;;5071105;28;20420;-32
2023/06/27 02:57:02;;;;;;;1.98;1.30;;;;;;;;;;5083914;28;20219;-35
2023/06/27 02:59:29;;;;;;;2.92;1.30;;;;;;;;;;5069747;28;20331;-33
2023/06/27 03:01:56;;;;;;;1.40;1.27;;;;;;;;;;5070445;28;20205;-37
2023/06/27 03:04:23;;;;;;;2.65;1.42;;;;;;;;;;5076743;28;20201;-32
2023/06/27 03:06:50;;;;;;;2.17;1.60;;;;;;;;;;5079307;28;20202;-31
2023/06/27 03:09:19;;;;;;;3.07;1.57;;;;;;;;;;5081066;28;20231;-36
2023/06/27 03:11:47;;;;;;;3.22;1.60;;;;;;;;;;5078569;28;20223;-35
2023/06/27 03:14:17;;;;;;;4.20;1.60;;;;;;;;;;5089916;28;20237;-32
2023/06/27 03:16:44;;;;;;;1.40;1.30;;;;;;;;;;5089845;28;20564;-35
2023/06/27 03:19:11;;;;;;;2.33;1.40;;;;;;;;;;5081761;28;20231;-31
2023/06/27 03:21:38;;;;;;;2.90;1.60;;;;;;;;;;5071599;28;20272;-34
2023/06/27 03:24:05;;;;;;;3.65;1.67;;;;;;;;;;5088092;28;20211;-34
2023/06/27 03:26:34;;;;;;;2.50;1.40;;;;;;;;;;5092662;28;20207;-33
2023/06/27 03:29:01;;;;;;;3.22;1.63;;;;;;;;;;5109171;28;20221;-33
2023/06/27 03:31:28;;;;;;;2.58;1.65;;;;;;;;;;5110504;28;20224;-35
2023/06/27 03:33:57;;;;;;;2.85;1.38;;;;;;;;;;5100061;28;20200;-34
2023/06/27 03:36:24;;;;;;;4.70;1.80;;;;;;;;;;5109385;28;20196;-35
2023/06/27 03:38:51;;;;;;;2.35;1.35;;;;;;;;;;5091059;28;20224;-36
2023/06/27 03:41:18;;;;;;;2.55;1.52;;;;;;;;;;5099353;28;20207;-33
2023/06/27 03:43:47;;;;;;;3.28;1.33;;;;;;;;;;5101502;28;20208;-34
2023/06/27 03:46:14;;;;;;;2.95;1.48;;;;;;;;;;5110935;28;20202;-34
2023/06/27 03:48:42;;;;;;;2.50;1.57;;;;;;;;;;5106545;28;20224;-29
2023/06/27 03:51:09;;;;;;;2.10;1.90;;;;;;;;;;5099632;28;20219;-33
2023/06/27 03:53:36;;;;;;;2.83;1.70;;;;;;;;;;5103614;28;20232;-34
2023/06/27 03:56:03;;;;;;;1.23;1.13;;;;;;;;;;5104884;28;20197;-34
2023/06/27 03:58:32;;;;;;;1.65;1.50;;;;;;;;;;5091739;28;20316;-33
2023/06/27 04:01:01;;;;;;;2.50;1.30;;;;;;;;;;5092482;28;20257;-34
2023/06/27 04:03:28;;;;;;;1.73;1.30;;;;;;;;;;5091862;28;20214;-34
2023/06/27 04:05:55;;;;;;;1.45;1.38;;;;;;;;;;5091501;28;20204;-34
2023/06/27 04:08:22;;;;;;;2.25;1.40;;;;;;;;;;5089192;28;20224;-31
2023/06/27 04:10:49;;;;;;;2.47;1.60;;;;;;;;;;5104293;28;20216;-36
2023/06/27 04:13:16;;;;;;;4.63;1.48;;;;;;;;;;5096900;28;20200;-35
2023/06/27 04:15:43;;;;;;;2.00;1.20;;;;;;;;;;5112431;28;20665;-32
2023/06/27 04:18:12;;;;;;;5.47;1.60;;;;;;;;;;5102973;28;20220;-35
2023/06/27 04:20:39;;;;;;;1.50;1.37;;;;;;;;;;5091972;28;20204;-33
2023/06/27 04:23:06;;;;;;;4.17;1.60;;;;;;;;;;5092041;28;20219;-33
2023/06/27 04:25:34;;;;;;;1.60;1.40;;;;;;;;;;5094350;28;20216;-32
2023/06/27 04:28:01;;;;;;;2.38;1.70;;;;;;;;;;5100107;28;20224;-35
2023/06/27 04:30:29;;;;;;;4.60;1.20;;;;;;;;;;5092206;28;20215;-32
2023/06/27 04:32:56;;;;;;;1.10;1.10;;;;;;;;;;5090394;28;20220;-33
2023/06/27 04:35:24;;;;;;;1.73;1.47;;;;;;;;;;5096575;28;20204;-33
2023/06/27 04:37:52;;;;;;;1.60;1.50;;;;;;;;;;5099085;28;20219;-35
2023/06/27 04:40:20;;;;;;;1.67;1.20;;;;;;;;;;5094130;28;20204;-32
2023/06/27 04:42:47;;;;;;;2.57;1.37;;;;;;;;;;5092209;28;20291;-35
2023/06/27 04:45:14;;;;;;;4.03;1.63;;;;;;;;;;5112367;28;20214;-31
2023/06/27 04:47:42;;;;;;;1.37;1.27;;;;;;;;;;5111813;28;20219;-34
2023/06/27 04:50:14;;;;;;;2.77;1.67;;;;;;;;;;5099202;28;20287;-34
2023/06/27 04:52:43;;;;;;;2.83;1.70;;;;;;;;;;5093264;28;20517;-33
2023/06/27 04:55:10;;;;;;;1.43;1.13;;;;;;;;;;5101557;28;20246;-34
2023/06/27 04:57:37;;;;;;;2.20;1.30;;;;;;;;;;5095780;28;20256;-33
2023/06/27 05:00:09;;;;;;;2.10;1.77;;;;;;;;;;5096099;28;20677;-33
2023/06/27 05:02:36;;;;;;;4.55;1.70;;;;;;;;;;5096079;28;20200;-32
2023/06/27 05:05:03;;;;;;;2.00;1.20;;;;;;;;;;5108447;28;20199;-31
2023/06/27 05:07:30;;;;;;;2.47;1.63;;;;;;;;;;5108018;28;20205;-33
2023/06/27 05:09:59;;;;;;;2.60;1.47;;;;;;;;;;5094870;28;20204;-34
2023/06/27 05:12:27;;;;;;;2.10;1.50;;;;;;;;;;5104336;28;20304;-31
2023/06/27 05:14:54;;;;;;;2.83;1.27;;;;;;;;;;5111833;28;20200;-32
2023/06/27 05:17:21;;;;;;;4.70;1.37;;;;;;;;;;5112000;28;20200;-32
2023/06/27 05:19:48;;;;;;;3.93;1.70;;;;;;;;;;5097213;28;20744;-34
2023/06/27 05:22:15;;;;;;;2.97;1.60;;;;;;;;;;5110452;28;20204;-33
2023/06/27 05:24:42;;;;;;;2.30;1.50;;;;;;;;;;5093578;28;20665;-32
2023/06/27 05:27:11;;;;;;;4.90;1.80;;;;;;;;;;5101660;28;20291;-33
2023/06/27 05:29:38;;;;;;;1.63;1.53;;;;;;;;;;5114920;28;20218;-33
2023/06/27 05:32:05;;;;;;;2.77;1.47;;;;;;;;;;5111342;28;20227;-35
2023/06/27 05:34:32;;;;;;;2.17;1.53;;;;;;;;;;5098832;28;20200;-32
2023/06/27 05:37:00;;;;;;;3.33;1.47;;;;;;;;;;5104934;28;20200;-33
2023/06/27 05:39:27;;;;;;;1.87;1.50;;;;;;;;;;5103573;28;20267;-31
2023/06/27 05:41:54;;;;;;;5.17;1.70;;;;;;;;;;5111481;28;20205;-33
2023/06/27 05:44:22;;;;;;;2.20;1.40;;;;;;;;;;5115057;28;20215;-31
2023/06/27 05:46:49;;;;;;;6.40;1.90;;;;;;;;;;5114640;28;20210;-33
2023/06/27 05:49:17;;;;;;;5.13;1.73;;;;;;;;;;5108000;28;20681;-34
2023/06/27 05:51:44;;;;;;;3.17;1.50;;;;;;;;;;5096793;28;20242;-35
2023/06/27 05:54:11;;;;;;;5.13;2.00;;;;;;;;;;5097058;28;20208;-35
2023/06/27 05:56:39;;;;;;;4.10;1.50;;;;;;;;;;5107219;28;20207;-30
2023/06/27 05:59:06;;;;;;;4.20;1.73;;;;;;;;;;5103110;28;20250;-29
2023/06/27 06:01:37;;;;;;;3.60;1.67;;;;;;;;;;5094355;28;20204;-33
2023/06/27 06:04:04;;;;;;;3.33;1.73;;;;;;;;;;5094465;28;20215;-33
2023/06/27 06:06:33;;;;;;;4.90;1.57;;;;;;;;;;5101900;28;20205;-30
2023/06/27 06:09:00;;;;;;;2.27;1.37;;;;;;;;;;5095794;28;20681;-35
2023/06/27 06:11:28;;;;;;;1.85;1.50;;;;;;;;;;5103538;28;20223;-33
2023/06/27 06:13:55;;;;;;;6.03;1.77;;;;;;;;;;5103582;28;20200;-32
2023/06/27 06:16:23;;;;;;;2.80;1.63;;;;;;;;;;5093186;28;20208;-35
2023/06/27 06:18:51;;;;;;;3.80;1.50;;;;;;;;;;5093535;28;20235;-36
2023/06/27 06:21:18;;;;;;;3.75;1.67;;;;;;;;;;5106631;28;20212;-32
2023/06/27 06:23:46;;;;;;;4.07;1.40;;;;;;;;;;5109709;28;20302;-36
2023/06/27 06:26:13;;;;;;;3.43;1.60;;;;;;;;;;5101030;28;20210;-34
2023/06/27 06:28:40;;;;;;;10.65;1.90;;;;;;;;;;5096933;28;20218;-31
2023/06/27 06:31:10;;;;;;;4.07;1.60;;;;;;;;;;5093817;28;20536;-35
2023/06/27 06:33:38;;;;;;;2.67;1.58;;;;;;;;;;5100729;28;20201;-33
2023/06/27 06:36:07;;;;;;;1.90;1.40;;;;;;;;;;5092578;28;20201;-35
2023/06/27 06:38:34;;;;;;;3.92;1.55;;;;;;;;;;5090446;28;20287;-32
2023/06/27 06:41:01;;;;;;;6.05;2.03;;;;;;;;;;5095787;28;20212;-35
2023/06/27 06:43:28;;;;;;;3.35;2.25;;;;;;;;;;5113580;28;20201;-31
2023/06/27 06:45:55;;;;;;;3.42;1.38;;;;;;;;;;5113521;28;20219;-30
2023/06/27 06:48:23;;;;;;;2.97;1.55;;;;;;;;;;5104889;28;20227;-33
2023/06/27 06:50:51;;;;;;;2.35;1.50;;;;;;;;;;5096226;28;20288;-31
2023/06/27 06:53:20;;;;;;;1.85;1.33;;;;;;;;;;5111713;28;20236;-31
2023/06/27 06:55:47;;;;;;;1.75;1.30;;;;;;;;;;5102312;28;20201;-31
2023/06/27 06:58:14;;;;;;;2.45;1.38;;;;;;;;;;5096927;28;20563;-32
2023/06/27 07:00:41;;;;;;;1.73;1.20;;;;;;;;;;5114131;28;20203;-35
2023/06/27 07:03:08;;;;;;;5.00;1.33;;;;;;;;;;5098171;28;20284;-32
2023/06/27 07:05:36;;;;;;;4.35;1.35;;;;;;;;;;5105174;28;20294;-31
2023/06/27 07:08:03;;;;;;;2.85;1.42;;;;;;;;;;5093327;28;20223;-32
2023/06/27 07:10:31;;;;;;;2.90;1.25;;;;;;;;;;5104552;28;20652;-33
2023/06/27 07:12:59;;;;;;;1.98;1.30;;;;;;;;;;5092593;28;20223;-31
2023/06/27 07:15:27;;;;;;;2.58;1.60;;;;;;;;;;5093092;28;20207;-32
2023/06/27 07:17:54;;;;;;;2.08;1.52;;;;;;;;;;5092640;28;20225;-33
2023/06/27 07:20:22;;;;;;;3.17;1.50;;;;;;;;;;5099630;28;20227;-31
2023/06/27 07:22:49;;;;;;;1.50;1.40;;;;;;;;;;5094548;28;20214;-33
2023/06/27 07:25:16;;;;;;;1.88;1.48;;;;;;;;;;5099608;28;20205;-31
2023/06/27 07:27:44;;;;;;;3.42;1.73;;;;;;;;;;5092034;28;20240;-34
2023/06/27 07:30:13;;;;;;;3.00;1.30;;;;;;;;;;5093003;28;20289;-32
2023/06/27 07:32:41;;;;;;;1.80;1.30;;;;;;;;;;5094560;28;20589;-35
2023/06/27 07:35:08;;;;;;;1.30;1.25;;;;;;;;;;5094462;28;20202;-33
2023/06/27 07:37:37;;;;;;;1.75;1.40;;;;;;;;;;5108571;28;20215;-34
2023/06/27 07:40:04;;;;;;;3.60;1.10;;;;;;;;;;5095240;28;20230;-35
2023/06/27 07:42:32;;;;;;;1.30;1.20;;;;;;;;;;5103863;28;20209;-32
2023/06/27 07:44:59;;;;;;;1.38;1.25;;;;;;;;;;5092583;28;20672;-31
2023/06/27 07:47:27;;;;;;;1.30;0.90;;;;;;;;;;5095955;28;20206;-36
2023/06/27 07:49:55;;;;;;;3.40;1.25;;;;;;;;;;5094051;28;20222;-32
2023/06/27 07:52:22;;;;;;;1.88;1.15;;;;;;;;;;5098418;28;20618;-35
2023/06/27 07:54:50;;;;;;;2.72;1.25;;;;;;;;;;5093168;28;20219;-32
2023/06/27 07:57:35;;;;;;;3.20;1.30;;;;;;;;;;5106530;28;20217;-33
2023/06/27 08:00:03;;;;;;;1.83;1.13;;;;;;;;;;5102410;28;20210;-33
2023/06/27 08:02:32;;;;;;;5.80;1.45;;;;;;;;;;5090630;28;20221;-33
2023/06/27 08:04:59;;;;;;;1.30;1.20;;;;;;;;;;5089721;28;20271;-32
2023/06/27 08:07:26;;;;;;;1.38;1.10;;;;;;;;;;5093910;28;20404;-34
2023/06/27 08:09:53;;;;;;;4.68;1.20;;;;;;;;;;5094262;28;20217;-33
2023/06/27 08:12:20;;;;;;;5.90;1.45;;;;;;;;;;5111533;28;20995;-33
2023/06/27 08:14:49;;;;;;;1.75;1.30;;;;;;;;;;5094770;28;20369;-31
2023/06/27 08:17:16;;;;;;;1.30;1.20;;;;;;;;;;5090593;28;20219;-34
2023/06/27 08:19:45;;;;;;;2.72;1.30;;;;;;;;;;5096787;28;20222;-32
2023/06/27 08:22:12;;;;;;;2.20;1.25;;;;;;;;;;5107449;28;20216;-35
2023/06/27 08:24:40;;;;;;;1.13;1.02;;;;;;;;;;5101721;28;20789;-34
2023/06/27 08:27:08;;;;;;;1.55;1.35;;;;;;;;;;5107472;28;20198;-32
2023/06/27 08:29:35;;;;;;;4.10;1.40;;;;;;;;;;5116288;28;20217;-33
2023/06/27 08:32:02;;;;;;;3.67;1.30;;;;;;;;;;5116280;28;20224;-35
2023/06/27 08:34:31;;;;;;;3.42;1.33;;;;;;;;;;5106233;28;20723;-32
2023/06/27 08:37:00;;;;;;;1.30;1.20;;;;;;;;;;5100484;28;20215;-34
2023/06/27 08:39:28;;;;;;;1.15;0.93;;;;;;;;;;5099560;28;20251;-34
2023/06/27 08:41:57;;;;;;;2.58;1.48;;;;;;;;;;5184335;22;20335;-27
2023/06/27 08:44:24;;;;;;;3.85;1.40;;;;;;;;;;5089530;28;20208;-26
2023/06/27 08:46:51;;;;;;;3.92;1.38;;;;;;;;;;5094920;28;20203;-26
2023/06/27 08:49:21;;;;;;;1.40;1.30;;;;;;;;;;5077847;28;20224;-25
2023/06/27 08:51:50;;;;;;;1.88;1.20;;;;;;;;;;5064058;28;20273;-26
2023/06/27 08:54:21;;;;;;;1.92;1.73;;;;;;;;;;5067914;28;20214;-26
2023/06/27 08:56:49;;;;;;;2.05;1.38;;;;;;;;;;5068496;28;20206;-25
2023/06/27 08:59:19;;;;;;;1.98;1.30;;;;;;;;;;5074497;28;20940;-25
2023/06/27 09:01:46;;;;;;;2.58;1.42;;;;;;;;;;5069264;28;20211;-27
2023/06/27 09:04:20;;;;;;;3.00;1.75;;;;;;;;;;5073839;28;20200;-26
2023/06/27 09:06:48;;;;;;;2.47;1.42;;;;;;;;;;5074185;28;20204;-26
2023/06/27 09:09:15;;;;;;;2.47;1.48;;;;;;;;;;5067897;28;20224;-28
2023/06/27 09:11:45;;;;;;;2.10;1.25;;;;;;;;;;5067949;28;20208;-24
2023/06/27 09:14:12;;;;;;;1.80;1.55;;;;;;;;;;5074515;28;20238;-27
2023/06/27 09:16:40;;;;;;;2.55;1.27;;;;;;;;;;5069443;28;20223;-24
2023/06/27 09:19:07;;;;;;;1.45;1.35;;;;;;;;;;5059852;28;20222;-27
2023/06/27 09:21:35;;;;;;;2.15;1.60;;;;;;;;;;5074842;28;20308;-24
2023/06/27 09:24:06;;;;;;;2.65;1.50;;;;;;;;;;5071273;28;20722;-27
2023/06/27 09:26:33;;;;;;;1.83;1.35;;;;;;;;;;5065119;28;20269;-26
2023/06/27 09:29:02;;;;;;;3.53;1.20;;;;;;;;;;5073758;28;20592;-24
2023/06/27 09:31:30;;;;;;;1.85;1.20;;;;;;;;;;5070524;28;20220;-25
2023/06/27 09:34:04;;;;;;;3.53;1.40;;;;;;;;;;5069604;28;20290;-25
2023/06/27 09:36:32;;;;;;;2.03;1.55;;;;;;;;;;5074004;28;20241;-25
2023/06/27 09:39:01;;;;;;;1.98;1.40;;;;;;;;;;5070250;28;20238;-25
2023/06/27 09:41:40;;;;;;;1.63;1.20;;;;;;;;;;5074190;28;20222;-28
2023/06/27 09:44:13;;;;;;;4.63;1.63;;;;;;;;;;5074898;28;20200;-25
2023/06/27 09:46:41;;;;;;;1.42;1.33;;;;;;;;;;5069545;28;20789;-26
2023/06/27 09:49:08;;;;;;;4.85;1.60;;;;;;;;;;5071434;28;20222;-25
2023/06/27 09:51:35;;;;;;;3.60;1.50;;;;;;;;;;5074515;28;20206;-24
2023/06/27 09:54:02;;;;;;;4.20;1.58;;;;;;;;;;5069267;28;20331;-25
2023/06/27 09:56:30;;;;;;;5.10;1.52;;;;;;;;;;5070508;28;20203;-25
2023/06/27 09:58:57;;;;;;;2.67;1.27;;;;;;;;;;5073984;28;20224;-28
2023/06/27 10:01:26;;;;;;;3.55;1.52;;;;;;;;;;5070950;28;20247;-26
2023/06/27 10:03:53;;;;;;;4.15;1.80;;;;;;;;;;5066075;28;20609;-25
2023/06/27 10:06:21;;;;;;;1.40;1.30;;;;;;;;;;5073173;28;20195;-24
2023/06/27 10:08:48;;;;;;;2.08;1.73;;;;;;;;;;5066287;28;20228;-26
2023/06/27 10:11:15;;;;;;;3.08;1.75;;;;;;;;;;5069377;28;20580;-26
2023/06/27 10:13:42;;;;;;;1.55;1.35;;;;;;;;;;5073595;28;20224;-24
2023/06/27 10:16:10;;;;;;;6.25;2.05;;;;;;;;;;5070900;28;20204;-28
2023/06/27 10:18:38;;;;;;;3.83;1.42;;;;;;;;;;5063553;28;20228;-29
2023/06/27 10:21:05;;;;;;;2.75;1.40;;;;;;;;;;5072866;28;20657;-26
2023/06/27 10:23:33;;;;;;;5.13;1.63;;;;;;;;;;5068344;28;20209;-25
2023/06/27 10:26:00;;;;;;;3.45;1.40;;;;;;;;;;5061083;28;20242;-26
2023/06/27 10:28:45;;;;;;;4.68;1.60;;;;;;;;;;5071988;28;20639;-28
2023/06/27 10:31:12;;;;;;;2.85;1.70;;;;;;;;;;5073646;28;20202;-23
2023/06/27 10:33:42;;;;;;;3.08;1.30;;;;;;;;;;5062423;28;20235;-23
2023/06/27 10:36:11;;;;;;;2.20;1.92;;;;;;;;;;5064512;28;20568;-27
2023/06/27 10:38:38;;;;;;;5.10;1.50;;;;;;;;;;5068547;28;20227;-27
2023/06/27 10:41:24;;;;;;;5.25;1.90;;;;;;;;;;5064902;28;20212;-26
2023/06/27 10:43:52;;;;;;;2.13;1.52;;;;;;;;;;5072915;28;20200;-23
2023/06/27 10:46:26;;;;;;;3.58;1.45;;;;;;;;;;5068509;28;20217;-25
2023/06/27 10:48:59;;;;;;;1.52;1.40;;;;;;;;;;5062499;28;20248;-26
2023/06/27 10:51:35;;;;;;;5.75;1.90;;;;;;;;;;5071857;28;20615;-28
2023/06/27 10:54:18;;;;;;;1.58;1.27;;;;;;;;;;5070630;28;20226;-26
2023/06/27 10:56:46;;;;;;;1.98;1.40;;;;;;;;;;5071655;28;20208;-27
2023/06/27 10:59:13;;;;;;;1.50;1.40;;;;;;;;;;5071913;28;20228;-27
2023/06/27 11:01:44;;;;;;;3.35;1.90;;;;;;;;;;5072729;28;20206;-24
2023/06/27 11:04:20;;;;;;;2.08;1.55;;;;;;;;;;5064868;28;20207;-24
2023/06/27 11:06:47;;;;;;;1.80;1.70;;;;;;;;;;5069347;28;20200;-25
2023/06/27 11:09:16;;;;;;;3.67;2.13;;;;;;;;;;5064999;28;20226;-24
2023/06/27 11:11:53;;;;;;;2.17;1.60;;;;;;;;;;5069986;28;20211;-23
2023/06/27 11:14:33;;;;;;;3.78;1.75;;;;;;;;;;5071255;28;20228;-26
2023/06/27 11:17:00;;;;;;;4.85;1.60;;;;;;;;;;5070422;28;20265;-26
2023/06/27 11:19:29;;;;;;;2.17;1.50;;;;;;;;;;5063220;28;20312;-28
2023/06/27 11:21:57;;;;;;;3.15;1.83;;;;;;;;;;5068253;28;20218;-25
2023/06/27 11:24:25;;;;;;;2.80;1.95;;;;;;;;;;5060915;28;20204;-27
2023/06/27 11:26:53;;;;;;;5.20;1.90;;;;;;;;;;5064344;28;20213;-24
2023/06/27 11:29:20;;;;;;;3.15;1.40;;;;;;;;;;5070518;28;20229;-25
2023/06/27 11:31:47;;;;;;;3.60;1.77;;;;;;;;;;5070725;28;20714;-23
2023/06/27 11:34:16;;;;;;;3.65;1.48;;;;;;;;;;5063147;28;20685;-24
2023/06/27 11:36:45;;;;;;;3.88;1.75;;;;;;;;;;5070167;28;20573;-27
2023/06/27 11:39:12;;;;;;;3.13;1.52;;;;;;;;;;5065552;28;20224;-27
2023/06/27 11:41:40;;;;;;;3.25;2.22;;;;;;;;;;5065153;28;20204;-25
2023/06/27 11:44:10;;;;;;;3.08;1.40;;;;;;;;;;5063744;28;20211;-24
2023/06/27 11:46:37;;;;;;;4.30;1.58;;;;;;;;;;5071845;28;20262;-25
2023/06/27 11:49:04;;;;;;;4.88;2.10;;;;;;;;;;5063629;28;20838;-24
2023/06/27 11:51:41;;;;;;;2.58;2.10;;;;;;;;;;5071413;28;20426;-24
2023/06/27 11:54:10;;;;;;;2.20;1.70;;;;;;;;;;5052358;28;20292;-26
2023/06/27 11:56:37;;;;;;;2.53;1.70;;;;;;;;;;5060152;28;20217;-23
2023/06/27 11:59:06;;;;;;;3.10;1.33;;;;;;;;;;5068148;28;20227;-27
2023/06/27 12:01:33;;;;;;;2.20;1.60;;;;;;;;;;5064556;28;20201;-25
2023/06/27 12:04:01;;;;;;;1.70;1.60;;;;;;;;;;5072975;28;20194;-26
2023/06/27 12:06:31;;;;;;;3.13;1.30;;;;;;;;;;5068241;28;20237;-27
2023/06/27 12:08:58;;;;;;;3.67;1.70;;;;;;;;;;5068438;28;20224;-24
2023/06/27 12:11:32;;;;;;;2.10;1.50;;;;;;;;;;5069847;28;20207;-25
2023/06/27 12:14:01;;;;;;;7.15;2.53;;;;;;;;;;5072043;28;20214;-27
2023/06/27 12:16:29;;;;;;;4.55;1.80;;;;;;;;;;5068325;28;20206;-26
2023/06/27 12:19:04;;;;;;;2.15;1.33;;;;;;;;;;5070893;28;20326;-27
2023/06/27 12:21:31;;;;;;;5.88;1.80;;;;;;;;;;5073923;28;20481;-27
2023/06/27 12:24:00;;;;;;;2.42;1.58;;;;;;;;;;5066979;28;20222;-25
2023/06/27 12:26:27;;;;;;;3.65;1.50;;;;;;;;;;5069968;28;20310;-25
2023/06/27 12:28:59;;;;;;;1.67;1.38;;;;;;;;;;5071955;28;20231;-26
2023/06/27 12:31:26;;;;;;;2.30;1.38;;;;;;;;;;5072561;28;20207;-25
2023/06/27 12:33:54;;;;;;;3.70;1.50;;;;;;;;;;5060121;28;20567;-25
2023/06/27 12:36:22;;;;;;;3.10;1.60;;;;;;;;;;5071172;28;20204;-26
2023/06/27 12:38:49;;;;;;;1.48;1.23;;;;;;;;;;5067576;28;20232;-25
2023/06/27 12:41:18;;;;;;;5.15;1.63;;;;;;;;;;5069317;28;20698;-29
2023/06/27 12:43:45;;;;;;;1.75;1.60;;;;;;;;;;5072441;28;20208;-25
2023/06/27 12:46:14;;;;;;;2.50;1.38;;;;;;;;;;5068705;28;20205;-26
2023/06/27 12:48:41;;;;;;;2.33;1.42;;;;;;;;;;5066441;28;20227;-27
2023/06/27 12:51:08;;;;;;;2.30;1.30;;;;;;;;;;5068623;28;20223;-25
2023/06/27 12:53:36;;;;;;;4.88;1.90;;;;;;;;;;5065712;28;20226;-24
2023/06/27 12:56:04;;;;;;;1.65;1.50;;;;;;;;;;5069352;28;20250;-25
2023/06/27 12:58:31;;;;;;;1.83;1.20;;;;;;;;;;5071521;28;20223;-26
2023/06/27 13:01:00;;;;;;;1.52;1.40;;;;;;;;;;5073437;28;20207;-26
2023/06/27 13:03:28;;;;;;;2.53;1.35;;;;;;;;;;5073596;28;20200;-25
2023/06/27 13:08:23;;;;;;;2.20;1.50;;;;;;;;;;5074727;28;20322;-26
2023/06/27 13:10:51;;;;;;;5.40;1.55;;;;;;;;;;5058535;28;20209;-26
2023/06/27 13:13:18;;;;;;;1.70;1.60;;;;;;;;;;5072827;28;20203;-26
2023/06/27 13:15:45;;;;;;;4.30;1.75;;;;;;;;;;5075700;28;20209;-27
2023/06/27 13:18:12;;;;;;;2.88;1.45;;;;;;;;;;5069177;28;20233;-27
2023/06/27 13:20:42;;;;;;;1.52;1.40;;;;;;;;;;5071133;28;20600;-25
2023/06/27 13:23:09;;;;;;;1.73;1.38;;;;;;;;;;5074737;28;20238;-27
2023/06/27 13:25:36;;;;;;;3.60;1.42;;;;;;;;;;5063572;28;20205;-28
2023/06/27 13:28:03;;;;;;;3.72;1.35;;;;;;;;;;5073071;28;20223;-25
2023/06/27 13:30:31;;;;;;;2.10;1.35;;;;;;;;;;5071700;28;20200;-26
2023/06/27 13:32:58;;;;;;;4.85;1.90;;;;;;;;;;5071353;28;20211;-24
2023/06/27 13:35:25;;;;;;;5.45;1.73;;;;;;;;;;5068302;28;20249;-27
2023/06/27 13:37:54;;;;;;;3.15;1.40;;;;;;;;;;5074660;28;20227;-25
2023/06/27 13:40:22;;;;;;;2.95;1.50;;;;;;;;;;5063797;28;20207;-24
2023/06/27 13:42:49;;;;;;;2.20;1.70;;;;;;;;;;5072240;28;20204;-28
2023/06/27 13:45:16;;;;;;;2.55;1.63;;;;;;;;;;5071716;28;20243;-26
2023/06/27 13:47:43;;;;;;;4.03;1.60;;;;;;;;;;5063176;28;20218;-27
2023/06/27 13:50:10;;;;;;;5.00;1.70;;;;;;;;;;5071237;28;20203;-26
2023/06/27 13:52:38;;;;;;;2.20;1.10;;;;;;;;;;5071217;28;20570;-28
2023/06/27 13:55:06;;;;;;;2.17;1.50;;;;;;;;;;5063496;28;20230;-25
2023/06/27 13:57:34;;;;;;;2.53;1.50;;;;;;;;;;5067448;28;20457;-26
2023/06/27 14:00:01;;;;;;;1.67;1.35;;;;;;;;;;5071410;28;20196;-28
2023/06/27 14:02:28;;;;;;;1.73;1.40;;;;;;;;;;5064001;28;20207;-26
2023/06/27 14:04:55;;;;;;;3.15;1.52;;;;;;;;;;5062398;28;20200;-25
2023/06/27 14:07:23;;;;;;;4.55;1.60;;;;;;;;;;5070858;28;20302;-24
2023/06/27 14:09:50;;;;;;;3.22;1.30;;;;;;;;;;5060900;28;20256;-28
2023/06/27 14:12:19;;;;;;;3.47;1.52;;;;;;;;;;5070914;28;20208;-27
2023/06/27 14:14:46;;;;;;;2.05;1.65;;;;;;;;;;5070832;28;20333;-26
2023/06/27 14:17:13;;;;;;;2.97;1.42;;;;;;;;;;5065393;28;20209;-29
2023/06/27 14:19:41;;;;;;;2.13;1.30;;;;;;;;;;5052164;28;20209;-27
2023/06/27 14:22:09;;;;;;;1.70;1.52;;;;;;;;;;5062946;28;20602;-28
2023/06/27 14:24:36;;;;;;;2.35;1.88;;;;;;;;;;5059197;28;20219;-28
2023/06/27 14:27:04;;;;;;;2.40;1.52;;;;;;;;;;5065881;28;20211;-26
2023/06/27 14:29:33;;;;;;;1.58;1.48;;;;;;;;;;5071150;28;20240;-25
2023/06/27 14:32:00;;;;;;;5.15;1.73;;;;;;;;;;5071325;28;20215;-28
2023/06/27 14:34:28;;;;;;;1.98;1.30;;;;;;;;;;5060272;28;20227;-27
2023/06/27 14:36:55;;;;;;;3.08;1.52;;;;;;;;;;5070271;28;20213;-28
2023/06/27 14:39:22;;;;;;;1.98;1.67;;;;;;;;;;5064537;28;20228;-25
2023/06/27 14:46:55;;;;;;;2.13;1.48;;;;;;;;;;5090684;28;20515;-39
2023/06/27 14:49:22;;;;;;;4.22;1.65;;;;;;;;;;5106007;28;20233;-42
2023/06/27 14:51:49;;;;;;;2.30;1.33;;;;;;;;;;5095524;28;20214;-36
2023/06/27 14:54:16;;;;;;;3.63;1.73;;;;;;;;;;5092738;28;20250;-40
2023/06/27 14:56:43;;;;;;;3.10;1.65;;;;;;;;;;5108954;28;20195;-35